sensor_id;sensor_type;location;lat;lon;timestamp;pressure;altitude;pressure_sealevel;temperature
70333;BMP280;57747;43.548;-5.704;2022-09-03T00:01:17;101533.41;;;18.56
70333;BMP280;57747;43.548;-5.704;2022-09-03T00:03:46;101529.09;;;18.55
70333;BMP280;57747;43.548;-5.704;2022-09-03T00:06:40;101537.44;;;18.67
70333;BMP280;57747;43.548;-5.704;2022-09-03T00:14:24;101539.16;;;18.54
70333;BMP280;57747;43.548;-5.704;2022-09-03T00:16:58;101525.09;;;18.52
70333;BMP280;57747;43.548;-5.704;2022-09-03T00:19:32;101528.72;;;18.39
70333;BMP280;57747;43.548;-5.704;2022-09-03T00:24:46;101533.66;;;18.37
70333;BMP280;57747;43.548;-5.704;2022-09-03T00:27:22;101534.16;;;18.39
70333;BMP280;57747;43.548;-5.704;2022-09-03T00:30:05;101535.75;;;18.40
70333;BMP280;57747;43.548;-5.704;2022-09-03T00:32:46;101527.31;;;18.42
70333;BMP280;57747;43.548;-5.704;2022-09-03T00:35:17;101531.91;;;18.41
70333;BMP280;57747;43.548;-5.704;2022-09-03T00:37:45;101521.22;;;18.45
70333;BMP280;57747;43.548;-5.704;2022-09-03T00:40:22;101523.66;;;18.55
70333;BMP280;57747;43.548;-5.704;2022-09-03T00:43:10;101520.00;;;18.59
70333;BMP280;57747;43.548;-5.704;2022-09-03T00:46:13;101517.13;;;18.56
70333;BMP280;57747;43.548;-5.704;2022-09-03T00:51:26;101523.66;;;18.55
70333;BMP280;57747;43.548;-5.704;2022-09-03T01:04:28;101507.56;;;18.67
70333;BMP280;57747;43.548;-5.704;2022-09-03T01:15:15;101497.34;;;18.73
70333;BMP280;57747;43.548;-5.704;2022-09-03T01:17:58;101492.84;;;18.68
70333;BMP280;57747;43.548;-5.704;2022-09-03T01:20:37;101487.56;;;18.63
70333;BMP280;57747;43.548;-5.704;2022-09-03T01:29:23;101482.66;;;18.74
70333;BMP280;57747;43.548;-5.704;2022-09-03T01:39:58;101477.22;;;18.65
70333;BMP280;57747;43.548;-5.704;2022-09-03T01:42:43;101477.50;;;18.64
70333;BMP280;57747;43.548;-5.704;2022-09-03T01:50:36;101480.06;;;18.60
70333;BMP280;57747;43.548;-5.704;2022-09-03T01:53:18;101471.63;;;18.62
70333;BMP280;57747;43.548;-5.704;2022-09-03T01:58:48;101475.31;;;18.66
70333;BMP280;57747;43.548;-5.704;2022-09-03T02:01:22;101470.19;;;18.64
70333;BMP280;57747;43.548;-5.704;2022-09-03T02:03:49;101465.53;;;18.65
70333;BMP280;57747;43.548;-5.704;2022-09-03T02:06:16;101458.50;;;18.64
70333;BMP280;57747;43.548;-5.704;2022-09-03T02:08:45;101453.56;;;18.66
70333;BMP280;57747;43.548;-5.704;2022-09-03T02:11:10;101454.06;;;18.68
70333;BMP280;57747;43.548;-5.704;2022-09-03T02:14:09;101454.53;;;18.61
70333;BMP280;57747;43.548;-5.704;2022-09-03T02:16:30;101455.78;;;18.55
70333;BMP280;57747;43.548;-5.704;2022-09-03T02:19:04;101448.59;;;18.59
70333;BMP280;57747;43.548;-5.704;2022-09-03T02:21:34;101449.56;;;18.54
70333;BMP280;57747;43.548;-5.704;2022-09-03T02:24:03;101440.00;;;18.57
70333;BMP280;57747;43.548;-5.704;2022-09-03T02:26:29;101439.19;;;18.56
70333;BMP280;57747;43.548;-5.704;2022-09-03T02:28:55;101436.59;;;18.51
70333;BMP280;57747;43.548;-5.704;2022-09-03T02:31:22;101443.66;;;18.52
70333;BMP280;57747;43.548;-5.704;2022-09-03T02:33:48;101433.38;;;18.32
70333;BMP280;57747;43.548;-5.704;2022-09-03T02:36:20;101432.56;;;18.31
70333;BMP280;57747;43.548;-5.704;2022-09-03T02:38:48;101438.16;;;18.35
70333;BMP280;57747;43.548;-5.704;2022-09-03T02:41:14;101436.41;;;18.30
70333;BMP280;57747;43.548;-5.704;2022-09-03T02:43:50;101431.63;;;18.36
70333;BMP280;57747;43.548;-5.704;2022-09-03T02:46:21;101439.31;;;18.43
70333;BMP280;57747;43.548;-5.704;2022-09-03T02:48:54;101432.59;;;18.40
70333;BMP280;57747;43.548;-5.704;2022-09-03T02:51:20;101430.84;;;18.44
70333;BMP280;57747;43.548;-5.704;2022-09-03T02:53:48;101431.97;;;18.43
70333;BMP280;57747;43.548;-5.704;2022-09-03T02:56:14;101427.47;;;18.38
70333;BMP280;57747;43.548;-5.704;2022-09-03T02:58:39;101417.28;;;18.44
70333;BMP280;57747;43.548;-5.704;2022-09-03T03:01:05;101423.66;;;18.39
70333;BMP280;57747;43.548;-5.704;2022-09-03T03:03:31;101421.72;;;18.40
70333;BMP280;57747;43.548;-5.704;2022-09-03T03:06:00;101426.03;;;18.41
70333;BMP280;57747;43.548;-5.704;2022-09-03T03:08:27;101424.00;;;18.47
70333;BMP280;57747;43.548;-5.704;2022-09-03T03:10:55;101420.19;;;18.48
70333;BMP280;57747;43.548;-5.704;2022-09-03T03:13:26;101421.44;;;18.50
70333;BMP280;57747;43.548;-5.704;2022-09-03T03:16:01;101423.19;;;18.55
70333;BMP280;57747;43.548;-5.704;2022-09-03T03:18:28;101415.34;;;18.53
70333;BMP280;57747;43.548;-5.704;2022-09-03T03:20:54;101415.72;;;18.52
70333;BMP280;57747;43.548;-5.704;2022-09-03T03:23:20;101419.38;;;18.56
70333;BMP280;57747;43.548;-5.704;2022-09-03T03:25:46;101414.88;;;18.51
70333;BMP280;57747;43.548;-5.704;2022-09-03T03:28:12;101408.97;;;18.58
70333;BMP280;57747;43.548;-5.704;2022-09-03T03:30:39;101415.88;;;18.55
70333;BMP280;57747;43.548;-5.704;2022-09-03T03:33:08;101406.28;;;18.58
70333;BMP280;57747;43.548;-5.704;2022-09-03T03:35:35;101417.31;;;18.53
70333;BMP280;57747;43.548;-5.704;2022-09-03T03:38:01;101412.03;;;18.48
70333;BMP280;57747;43.548;-5.704;2022-09-03T03:40:27;101414.56;;;18.35
70333;BMP280;57747;43.548;-5.704;2022-09-03T03:42:53;101412.31;;;18.37
70333;BMP280;57747;43.548;-5.704;2022-09-03T03:45:19;101413.28;;;18.42
70333;BMP280;57747;43.548;-5.704;2022-09-03T03:47:45;101412.97;;;18.43
70333;BMP280;57747;43.548;-5.704;2022-09-03T03:50:10;101413.28;;;18.42
70333;BMP280;57747;43.548;-5.704;2022-09-03T03:52:36;101408.16;;;18.40
70333;BMP280;57747;43.548;-5.704;2022-09-03T03:55:05;101408.97;;;18.40
70333;BMP280;57747;43.548;-5.704;2022-09-03T03:57:33;101415.84;;;18.38
70333;BMP280;57747;43.548;-5.704;2022-09-03T04:00:15;101410.06;;;18.31
70333;BMP280;57747;43.548;-5.704;2022-09-03T04:02:41;101411.81;;;18.27
70333;BMP280;57747;43.548;-5.704;2022-09-03T04:05:07;101402.53;;;18.19
70333;BMP280;57747;43.548;-5.704;2022-09-03T04:07:33;101405.53;;;18.09
70333;BMP280;57747;43.548;-5.704;2022-09-03T04:09:58;101401.69;;;18.10
70333;BMP280;57747;43.548;-5.704;2022-09-03T04:12:26;101407.44;;;18.08
70333;BMP280;57747;43.548;-5.704;2022-09-03T04:14:51;101398.63;;;18.02
70333;BMP280;57747;43.548;-5.704;2022-09-03T04:17:17;101400.38;;;17.98
70333;BMP280;57747;43.548;-5.704;2022-09-03T04:19:45;101392.25;;;17.98
70333;BMP280;57747;43.548;-5.704;2022-09-03T04:22:12;101392.88;;;17.95
70333;BMP280;57747;43.548;-5.704;2022-09-03T04:24:40;101393.31;;;17.89
70333;BMP280;57747;43.548;-5.704;2022-09-03T04:27:05;101389.19;;;18.00
70333;BMP280;57747;43.548;-5.704;2022-09-03T04:29:31;101391.88;;;17.91
70333;BMP280;57747;43.548;-5.704;2022-09-03T04:31:56;101397.00;;;17.93
70333;BMP280;57747;43.548;-5.704;2022-09-03T04:34:40;101383.72;;;17.82
70333;BMP280;57747;43.548;-5.704;2022-09-03T04:37:08;101376.56;;;17.87
70333;BMP280;57747;43.548;-5.704;2022-09-03T04:39:34;101386.47;;;17.91
70333;BMP280;57747;43.548;-5.704;2022-09-03T04:42:00;101385.22;;;17.97
70333;BMP280;57747;43.548;-5.704;2022-09-03T04:44:25;101384.59;;;18.00
70333;BMP280;57747;43.548;-5.704;2022-09-03T04:46:51;101375.03;;;17.94
70333;BMP280;57747;43.548;-5.704;2022-09-03T04:49:17;101382.56;;;17.75
70333;BMP280;57747;43.548;-5.704;2022-09-03T04:51:43;101381.56;;;17.62
70333;BMP280;57747;43.548;-5.704;2022-09-03T04:54:09;101367.72;;;17.72
70333;BMP280;57747;43.548;-5.704;2022-09-03T04:56:37;101383.56;;;17.79
70333;BMP280;57747;43.548;-5.704;2022-09-03T04:59:05;101377.53;;;17.91
70333;BMP280;57747;43.548;-5.704;2022-09-03T05:01:36;101374.38;;;17.97
70333;BMP280;57747;43.548;-5.704;2022-09-03T05:04:03;101367.50;;;18.00
70333;BMP280;57747;43.548;-5.704;2022-09-03T05:06:29;101372.00;;;18.04
70333;BMP280;57747;43.548;-5.704;2022-09-03T05:08:56;101371.34;;;17.99
70333;BMP280;57747;43.548;-5.704;2022-09-03T05:11:23;101367.47;;;17.91
70333;BMP280;57747;43.548;-5.704;2022-09-03T05:13:51;101363.56;;;17.75
70333;BMP280;57747;43.548;-5.704;2022-09-03T05:16:17;101355.44;;;17.75
70333;BMP280;57747;43.548;-5.704;2022-09-03T05:18:43;101363.50;;;17.89
70333;BMP280;57747;43.548;-5.704;2022-09-03T05:21:16;101359.69;;;17.98
70333;BMP280;57747;43.548;-5.704;2022-09-03T05:23:46;101361.28;;;17.99
70333;BMP280;57747;43.548;-5.704;2022-09-03T05:26:15;101368.31;;;18.00
70333;BMP280;57747;43.548;-5.704;2022-09-03T05:28:41;101367.63;;;17.95
70333;BMP280;57747;43.548;-5.704;2022-09-03T05:31:13;101373.56;;;17.88
70333;BMP280;57747;43.548;-5.704;2022-09-03T05:33:43;101369.22;;;17.87
70333;BMP280;57747;43.548;-5.704;2022-09-03T05:36:14;101370.28;;;17.69
70333;BMP280;57747;43.548;-5.704;2022-09-03T05:38:43;101364.19;;;17.63
70333;BMP280;57747;43.548;-5.704;2022-09-03T05:41:12;101364.03;;;17.59
70333;BMP280;57747;43.548;-5.704;2022-09-03T05:43:39;101369.72;;;17.58
70333;BMP280;57747;43.548;-5.704;2022-09-03T05:46:07;101378.25;;;17.42
70333;BMP280;57747;43.548;-5.704;2022-09-03T05:48:34;101366.88;;;17.32
70333;BMP280;57747;43.548;-5.704;2022-09-03T05:51:14;101375.63;;;17.28
70333;BMP280;57747;43.548;-5.704;2022-09-03T05:53:44;101376.25;;;17.03
70333;BMP280;57747;43.548;-5.704;2022-09-03T05:56:18;101369.28;;;17.10
70333;BMP280;57747;43.548;-5.704;2022-09-03T05:58:51;101375.06;;;16.95
70333;BMP280;57747;43.548;-5.704;2022-09-03T06:01:20;101368.69;;;16.77
70333;BMP280;57747;43.548;-5.704;2022-09-03T06:03:59;101372.53;;;16.62
70333;BMP280;57747;43.548;-5.704;2022-09-03T06:06:26;101381.28;;;16.59
70333;BMP280;57747;43.548;-5.704;2022-09-03T06:08:53;101370.63;;;16.63
70333;BMP280;57747;43.548;-5.704;2022-09-03T06:11:22;101373.84;;;16.65
70333;BMP280;57747;43.548;-5.704;2022-09-03T06:13:53;101379.84;;;16.62
70333;BMP280;57747;43.548;-5.704;2022-09-03T06:16:19;101371.94;;;16.65
70333;BMP280;57747;43.548;-5.704;2022-09-03T06:18:45;101376.44;;;16.70
70333;BMP280;57747;43.548;-5.704;2022-09-03T06:21:13;101368.03;;;16.71
70333;BMP280;57747;43.548;-5.704;2022-09-03T06:23:42;101375.97;;;16.90
70333;BMP280;57747;43.548;-5.704;2022-09-03T06:26:12;101372.16;;;16.91
70333;BMP280;57747;43.548;-5.704;2022-09-03T06:28:40;101383.72;;;16.83
70333;BMP280;57747;43.548;-5.704;2022-09-03T06:31:09;101381.22;;;16.73
70333;BMP280;57747;43.548;-5.704;2022-09-03T06:33:39;101385.06;;;16.72
70333;BMP280;57747;43.548;-5.704;2022-09-03T06:36:07;101383.94;;;16.73
70333;BMP280;57747;43.548;-5.704;2022-09-03T06:38:34;101381.50;;;16.85
70333;BMP280;57747;43.548;-5.704;2022-09-03T06:41:08;101388.19;;;17.02
70333;BMP280;57747;43.548;-5.704;2022-09-03T06:43:39;101395.31;;;16.98
70333;BMP280;57747;43.548;-5.704;2022-09-03T06:46:09;101400.13;;;17.01
70333;BMP280;57747;43.548;-5.704;2022-09-03T06:48:35;101390.44;;;17.08
70333;BMP280;57747;43.548;-5.704;2022-09-03T06:51:07;101397.97;;;17.11
70333;BMP280;57747;43.548;-5.704;2022-09-03T06:53:35;101402.47;;;17.16
70333;BMP280;57747;43.548;-5.704;2022-09-03T06:56:04;101396.69;;;17.32
70333;BMP280;57747;43.548;-5.704;2022-09-03T06:58:44;101390.63;;;17.35
70333;BMP280;57747;43.548;-5.704;2022-09-03T07:01:16;101388.78;;;17.44
70333;BMP280;57747;43.548;-5.704;2022-09-03T07:03:43;101397.97;;;17.57
70333;BMP280;57747;43.548;-5.704;2022-09-03T07:06:17;101399.41;;;17.54
70333;BMP280;57747;43.548;-5.704;2022-09-03T07:08:44;101400.41;;;17.67
70333;BMP280;57747;43.548;-5.704;2022-09-03T07:11:17;101393.59;;;17.78
70333;BMP280;57747;43.548;-5.704;2022-09-03T07:13:47;101399.09;;;17.96
70333;BMP280;57747;43.548;-5.704;2022-09-03T07:16:16;101400.09;;;18.09
70333;BMP280;57747;43.548;-5.704;2022-09-03T07:18:42;101405.75;;;18.38
70333;BMP280;57747;43.548;-5.704;2022-09-03T07:21:19;101408.19;;;18.66
70333;BMP280;57747;43.548;-5.704;2022-09-03T07:23:46;101412.84;;;18.83
70333;BMP280;57747;43.548;-5.704;2022-09-03T07:26:17;101416.84;;;18.94
70333;BMP280;57747;43.548;-5.704;2022-09-03T07:28:45;101408.84;;;19.07
70333;BMP280;57747;43.548;-5.704;2022-09-03T07:31:16;101406.25;;;19.19
70333;BMP280;57747;43.548;-5.704;2022-09-03T07:33:45;101405.19;;;19.03
70333;BMP280;57747;43.548;-5.704;2022-09-03T07:36:16;101406.59;;;19.18
70333;BMP280;57747;43.548;-5.704;2022-09-03T07:38:42;101402.09;;;19.30
70333;BMP280;57747;43.548;-5.704;2022-09-03T07:41:13;101410.53;;;19.55
70333;BMP280;57747;43.548;-5.704;2022-09-03T07:43:41;101400.03;;;19.66
70333;BMP280;57747;43.548;-5.704;2022-09-03T07:46:20;101408.31;;;19.78
70333;BMP280;57747;43.548;-5.704;2022-09-03T07:48:57;101396.31;;;19.79
70333;BMP280;57747;43.548;-5.704;2022-09-03T07:51:26;101404.94;;;19.90
70333;BMP280;57747;43.548;-5.704;2022-09-03T07:53:57;101401.72;;;19.88
70333;BMP280;57747;43.548;-5.704;2022-09-03T07:56:24;101406.03;;;19.89
70333;BMP280;57747;43.548;-5.704;2022-09-03T07:58:52;101396.66;;;20.07
70333;BMP280;57747;43.548;-5.704;2022-09-03T08:01:21;101391.31;;;20.20
70333;BMP280;57747;43.548;-5.704;2022-09-03T08:03:49;101400.41;;;20.24
70333;BMP280;57747;43.548;-5.704;2022-09-03T08:06:16;101404.41;;;20.26
70333;BMP280;57747;43.548;-5.704;2022-09-03T08:08:42;101398.31;;;20.00
70333;BMP280;57747;43.548;-5.704;2022-09-03T08:11:17;101400.47;;;20.15
70333;BMP280;57747;43.548;-5.704;2022-09-03T08:13:45;101403.31;;;20.40
70333;BMP280;57747;43.548;-5.704;2022-09-03T08:16:16;101407.31;;;20.21
70333;BMP280;57747;43.548;-5.704;2022-09-03T08:18:47;101408.75;;;19.89
70333;BMP280;57747;43.548;-5.704;2022-09-03T08:21:17;101406.78;;;19.98
70333;BMP280;57747;43.548;-5.704;2022-09-03T08:23:52;101402.94;;;20.29
70333;BMP280;57747;43.548;-5.704;2022-09-03T08:26:20;101406.66;;;20.45
70333;BMP280;57747;43.548;-5.704;2022-09-03T08:28:47;101399.38;;;20.71
70333;BMP280;57747;43.548;-5.704;2022-09-03T08:31:19;101404.88;;;20.83
70333;BMP280;57747;43.548;-5.704;2022-09-03T08:33:49;101410.56;;;20.78
70333;BMP280;57747;43.548;-5.704;2022-09-03T08:38:48;101409.84;;;20.69
70333;BMP280;57747;43.548;-5.704;2022-09-03T08:41:27;101404.72;;;21.00
70333;BMP280;57747;43.548;-5.704;2022-09-03T08:49:46;101398.94;;;21.48
70333;BMP280;57747;43.548;-5.704;2022-09-03T08:54:57;101414.50;;;21.01
70333;BMP280;57747;43.548;-5.704;2022-09-03T08:57:25;101408.31;;;21.38
70333;BMP280;57747;43.548;-5.704;2022-09-03T08:59:53;101404.50;;;21.51
70333;BMP280;57747;43.548;-5.704;2022-09-03T09:02:34;101406.63;;;21.21
70333;BMP280;57747;43.548;-5.704;2022-09-03T09:05:14;101417.25;;;21.59
70333;BMP280;57747;43.548;-5.704;2022-09-03T09:10:40;101418.13;;;21.39
70333;BMP280;57747;43.548;-5.704;2022-09-03T09:13:37;101415.09;;;21.77
70333;BMP280;57747;43.548;-5.704;2022-09-03T09:18:45;101414.41;;;21.80
70333;BMP280;57747;43.548;-5.704;2022-09-03T09:21:16;101423.78;;;22.20
70333;BMP280;57747;43.548;-5.704;2022-09-03T09:23:46;101420.44;;;22.39
70333;BMP280;57747;43.548;-5.704;2022-09-03T09:26:17;101419.28;;;22.40
70333;BMP280;57747;43.548;-5.704;2022-09-03T09:28:45;101422.09;;;22.56
70333;BMP280;57747;43.548;-5.704;2022-09-03T09:31:14;101411.94;;;22.28
70333;BMP280;57747;43.548;-5.704;2022-09-03T09:33:43;101422.91;;;21.79
70333;BMP280;57747;43.548;-5.704;2022-09-03T09:36:13;101429.06;;;22.13
70333;BMP280;57747;43.548;-5.704;2022-09-03T09:38:42;101423.84;;;21.71
70333;BMP280;57747;43.548;-5.704;2022-09-03T09:41:19;101428.94;;;22.09
70333;BMP280;57747;43.548;-5.704;2022-09-03T09:43:59;101435.91;;;22.07
70333;BMP280;57747;43.548;-5.704;2022-09-03T09:46:32;101431.16;;;22.44
70333;BMP280;57747;43.548;-5.704;2022-09-03T09:48:59;101433.88;;;22.72
70333;BMP280;57747;43.548;-5.704;2022-09-03T09:51:30;101436.41;;;23.09
70333;BMP280;57747;43.548;-5.704;2022-09-03T09:54:11;101434.22;;;22.71
70333;BMP280;57747;43.548;-5.704;2022-09-03T09:56:37;101441.59;;;22.83
70333;BMP280;57747;43.548;-5.704;2022-09-03T09:59:08;101442.09;;;23.32
70333;BMP280;57747;43.548;-5.704;2022-09-03T10:01:44;101443.59;;;23.62
70333;BMP280;57747;43.548;-5.704;2022-09-03T10:04:32;101442.91;;;23.65
70333;BMP280;57747;43.548;-5.704;2022-09-03T10:07:25;101440.41;;;23.60
70333;BMP280;57747;43.548;-5.704;2022-09-03T10:10:00;101432.03;;;23.37
70333;BMP280;57747;43.548;-5.704;2022-09-03T10:12:32;101425.03;;;23.07
70333;BMP280;57747;43.548;-5.704;2022-09-03T10:28:20;101417.47;;;23.16
70333;BMP280;57747;43.548;-5.704;2022-09-03T10:31:00;101420.56;;;22.71
70333;BMP280;57747;43.548;-5.704;2022-09-03T10:36:27;101416.59;;;23.44
70333;BMP280;57747;43.548;-5.704;2022-09-03T10:39:06;101399.09;;;23.17
70333;BMP280;57747;43.548;-5.704;2022-09-03T10:41:42;101400.47;;;23.39
70333;BMP280;57747;43.548;-5.704;2022-09-03T10:44:34;101399.72;;;23.58
70333;BMP280;57747;43.548;-5.704;2022-09-03T10:47:31;101390.66;;;23.38
70333;BMP280;57747;43.548;-5.704;2022-09-03T10:50:14;101385.44;;;23.49
70333;BMP280;57747;43.548;-5.704;2022-09-03T10:52:56;101384.53;;;24.16
70333;BMP280;57747;43.548;-5.704;2022-09-03T10:55:29;101382.34;;;24.21
70333;BMP280;57747;43.548;-5.704;2022-09-03T11:00:52;101380.03;;;24.23
70333;BMP280;57747;43.548;-5.704;2022-09-03T11:03:46;101382.22;;;23.98
70333;BMP280;57747;43.548;-5.704;2022-09-03T11:06:19;101373.03;;;24.06
70333;BMP280;57747;43.548;-5.704;2022-09-03T11:11:25;101365.19;;;24.47
70333;BMP280;57747;43.548;-5.704;2022-09-03T11:14:06;101360.03;;;24.42
70333;BMP280;57747;43.548;-5.704;2022-09-03T11:16:38;101372.78;;;23.76
70333;BMP280;57747;43.548;-5.704;2022-09-03T11:19:08;101366.00;;;23.89
70333;BMP280;57747;43.548;-5.704;2022-09-03T11:21:37;101363.94;;;23.67
70333;BMP280;57747;43.548;-5.704;2022-09-03T11:24:21;101356.31;;;23.41
70333;BMP280;57747;43.548;-5.704;2022-09-03T11:27:03;101363.66;;;23.37
70333;BMP280;57747;43.548;-5.704;2022-09-03T11:29:44;101353.78;;;24.03
70333;BMP280;57747;43.548;-5.704;2022-09-03T11:32:22;101357.44;;;23.91
70333;BMP280;57747;43.548;-5.704;2022-09-03T11:34:53;101351.53;;;24.08
70333;BMP280;57747;43.548;-5.704;2022-09-03T11:37:24;101350.56;;;23.81
70333;BMP280;57747;43.548;-5.704;2022-09-03T11:40:13;101350.44;;;24.32
70333;BMP280;57747;43.548;-5.704;2022-09-03T11:42:46;101349.47;;;24.21
70333;BMP280;57747;43.548;-5.704;2022-09-03T11:45:32;101357.50;;;23.94
70333;BMP280;57747;43.548;-5.704;2022-09-03T11:47:59;101358.00;;;23.29
70333;BMP280;57747;43.548;-5.704;2022-09-03T11:50:28;101361.16;;;23.47
70333;BMP280;57747;43.548;-5.704;2022-09-03T11:53:08;101348.25;;;24.42
70333;BMP280;57747;43.548;-5.704;2022-09-03T11:55:51;101349.38;;;23.63
70333;BMP280;57747;43.548;-5.704;2022-09-03T11:58:44;101349.63;;;23.38
70333;BMP280;57747;43.548;-5.704;2022-09-03T12:01:13;101342.38;;;24.01
70333;BMP280;57747;43.548;-5.704;2022-09-03T12:03:56;101333.78;;;24.22
70333;BMP280;57747;43.548;-5.704;2022-09-03T12:18:09;101347.91;;;24.43
70333;BMP280;57747;43.548;-5.704;2022-09-03T12:21:00;101341.44;;;24.75
70333;BMP280;57747;43.548;-5.704;2022-09-03T12:23:32;101343.47;;;25.04
70333;BMP280;57747;43.548;-5.704;2022-09-03T12:26:12;101339.66;;;24.86
70333;BMP280;57747;43.548;-5.704;2022-09-03T12:28:48;101335.50;;;24.72
70333;BMP280;57747;43.548;-5.704;2022-09-03T12:31:18;101332.81;;;24.53
70333;BMP280;57747;43.548;-5.704;2022-09-03T12:36:40;101329.94;;;25.42
70333;BMP280;57747;43.548;-5.704;2022-09-03T12:39:13;101332.84;;;25.56
70333;BMP280;57747;43.548;-5.704;2022-09-03T12:42:03;101326.06;;;25.20
70333;BMP280;57747;43.548;-5.704;2022-09-03T12:47:01;101324.00;;;24.63
70333;BMP280;57747;43.548;-5.704;2022-09-03T12:49:34;101325.50;;;24.84
70333;BMP280;57747;43.548;-5.704;2022-09-03T12:52:30;101322.06;;;25.14
70333;BMP280;57747;43.548;-5.704;2022-09-03T12:58:23;101319.13;;;25.90
70333;BMP280;57747;43.548;-5.704;2022-09-03T13:00:56;101329.22;;;25.48
70333;BMP280;57747;43.548;-5.704;2022-09-03T13:06:17;101322.38;;;25.65
70333;BMP280;57747;43.548;-5.704;2022-09-03T13:08:47;101326.31;;;25.38
70333;BMP280;57747;43.548;-5.704;2022-09-03T13:11:20;101326.47;;;24.95
70333;BMP280;57747;43.548;-5.704;2022-09-03T13:14:07;101325.75;;;25.55
70333;BMP280;57747;43.548;-5.704;2022-09-03T13:27:41;101308.88;;;25.83
70333;BMP280;57747;43.548;-5.704;2022-09-03T13:30:14;101310.06;;;25.86
70333;BMP280;57747;43.548;-5.704;2022-09-03T13:33:01;101315.16;;;25.54
70333;BMP280;57747;43.548;-5.704;2022-09-03T13:41:33;101313.59;;;25.53
70333;BMP280;57747;43.548;-5.704;2022-09-03T13:44:09;101316.59;;;25.74
70333;BMP280;57747;43.548;-5.704;2022-09-03T13:46:51;101319.84;;;25.49
70333;BMP280;57747;43.548;-5.704;2022-09-03T13:49:33;101318.19;;;25.45
70333;BMP280;57747;43.548;-5.704;2022-09-03T13:52:45;101317.41;;;25.18
70333;BMP280;57747;43.548;-5.704;2022-09-03T14:12:01;101314.13;;;25.08
70333;BMP280;57747;43.548;-5.704;2022-09-03T14:14:43;101302.47;;;24.65
70333;BMP280;57747;43.548;-5.704;2022-09-03T14:17:56;101310.59;;;25.08
70333;BMP280;57747;43.548;-5.704;2022-09-03T14:20:10;101306.16;;;25.26
70333;BMP280;57747;43.548;-5.704;2022-09-03T14:23:04;101300.47;;;26.03
70333;BMP280;57747;43.548;-5.704;2022-09-03T14:25:31;101302.94;;;26.15
70333;BMP280;57747;43.548;-5.704;2022-09-03T14:28:14;101303.06;;;25.58
70333;BMP280;57747;43.548;-5.704;2022-09-03T14:36:31;101293.31;;;25.98
70333;BMP280;57747;43.548;-5.704;2022-09-03T14:47:27;101290.38;;;25.77
70333;BMP280;57747;43.548;-5.704;2022-09-03T14:49:50;101289.66;;;25.83
70333;BMP280;57747;43.548;-5.704;2022-09-03T14:55:38;101281.16;;;25.62
70333;BMP280;57747;43.548;-5.704;2022-09-03T14:58:17;101282.75;;;25.63
70333;BMP280;57747;43.548;-5.704;2022-09-03T15:00:59;101286.63;;;25.28
70333;BMP280;57747;43.548;-5.704;2022-09-03T15:03:55;101276.13;;;25.07
70333;BMP280;57747;43.548;-5.704;2022-09-03T15:06:56;101272.34;;;25.19
70333;BMP280;57747;43.548;-5.704;2022-09-03T15:09:45;101284.81;;;24.86
70333;BMP280;57747;43.548;-5.704;2022-09-03T15:12:39;101275.38;;;25.40
70333;BMP280;57747;43.548;-5.704;2022-09-03T15:15:15;101267.94;;;25.41
70333;BMP280;57747;43.548;-5.704;2022-09-03T15:17:59;101268.88;;;25.86
70333;BMP280;57747;43.548;-5.704;2022-09-03T15:31:21;101257.19;;;26.34
70333;BMP280;57747;43.548;-5.704;2022-09-03T15:36:53;101256.97;;;25.75
70333;BMP280;57747;43.548;-5.704;2022-09-03T15:39:41;101251.13;;;25.76
70333;BMP280;57747;43.548;-5.704;2022-09-03T15:42:20;101249.88;;;26.07
70333;BMP280;57747;43.548;-5.704;2022-09-03T15:44:59;101250.03;;;25.50
70333;BMP280;57747;43.548;-5.704;2022-09-03T15:55:42;101247.81;;;25.97
70333;BMP280;57747;43.548;-5.704;2022-09-03T15:58:31;101249.47;;;25.68
70333;BMP280;57747;43.548;-5.704;2022-09-03T16:01:07;101246.66;;;26.02
70333;BMP280;57747;43.548;-5.704;2022-09-03T16:03:48;101243.25;;;25.41
70333;BMP280;57747;43.548;-5.704;2022-09-03T16:12:56;101240.34;;;25.94
70333;BMP280;57747;43.548;-5.704;2022-09-03T16:26:03;101234.81;;;25.26
70333;BMP280;57747;43.548;-5.704;2022-09-03T16:28:47;101226.91;;;24.64
70333;BMP280;57747;43.548;-5.704;2022-09-03T16:37:36;101237.94;;;25.55
70333;BMP280;57747;43.548;-5.704;2022-09-03T16:40:17;101240.19;;;24.39
70333;BMP280;57747;43.548;-5.704;2022-09-03T16:48:52;101221.44;;;25.21
70333;BMP280;57747;43.548;-5.704;2022-09-03T16:57:07;101237.50;;;24.43
70333;BMP280;57747;43.548;-5.704;2022-09-03T17:08:07;101231.59;;;24.18
70333;BMP280;57747;43.548;-5.704;2022-09-03T17:11:18;101220.25;;;24.65
70333;BMP280;57747;43.548;-5.704;2022-09-03T17:24:56;101219.97;;;24.24
70333;BMP280;57747;43.548;-5.704;2022-09-03T17:27:50;101209.72;;;24.44
70333;BMP280;57747;43.548;-5.704;2022-09-03T17:36:09;101216.06;;;24.02
70333;BMP280;57747;43.548;-5.704;2022-09-03T17:41:51;101220.25;;;24.19
70333;BMP280;57747;43.548;-5.704;2022-09-03T17:49:54;101213.25;;;23.60
70333;BMP280;57747;43.548;-5.704;2022-09-03T17:52:47;101204.34;;;23.63
70333;BMP280;57747;43.548;-5.704;2022-09-03T17:58:21;101199.28;;;23.26
70333;BMP280;57747;43.548;-5.704;2022-09-03T18:06:17;101221.16;;;22.58
70333;BMP280;57747;43.548;-5.704;2022-09-03T18:08:58;101219.41;;;22.50
70333;BMP280;57747;43.548;-5.704;2022-09-03T18:12:02;101208.50;;;22.50
70333;BMP280;57747;43.548;-5.704;2022-09-03T18:14:22;101208.97;;;22.40
70333;BMP280;57747;43.548;-5.704;2022-09-03T18:22:21;101201.72;;;22.16
70333;BMP280;57747;43.548;-5.704;2022-09-03T18:25:11;101202.97;;;22.18
70333;BMP280;57747;43.548;-5.704;2022-09-03T18:28:00;101197.31;;;22.11
70333;BMP280;57747;43.548;-5.704;2022-09-03T18:30:47;101198.66;;;22.17
70333;BMP280;57747;43.548;-5.704;2022-09-03T18:33:31;101198.53;;;21.98
70333;BMP280;57747;43.548;-5.704;2022-09-03T18:36:15;101203.91;;;21.94
70333;BMP280;57747;43.548;-5.704;2022-09-03T18:39:27;101201.38;;;22.02
70333;BMP280;57747;43.548;-5.704;2022-09-03T18:48:42;101206.19;;;21.52
70333;BMP280;57747;43.548;-5.704;2022-09-03T18:51:50;101209.78;;;21.68
70333;BMP280;57747;43.548;-5.704;2022-09-03T18:54:48;101202.06;;;21.58
70333;BMP280;57747;43.548;-5.704;2022-09-03T19:01:20;101205.28;;;21.48